Time;durP1;ratioP1;P1;durP2;ratioP2;P2;SDS_P1;SDS_P2;PMS_P1;PMS_P2;Temp;Humidity;BMP_temperature;BMP_pressure;BME280_temperature;BME280_humidity;BME280_pressure;Samples;Min_cycle;Max_cycle;Signal;HPM_P1;HPM_P2
2022/07/25 10:23:33;;;;;;;4.90;1.40;;;26.50;99.90;;;;;;4247534;27;21078;-91
2022/07/25 10:25:34;;;;;;;5.95;1.60;;;26.40;99.90;;;;;;4212621;28;20174;-92
2022/07/25 10:27:47;;;;;;;6.93;1.60;;;26.40;99.90;;;;;;4229013;28;20795;-92
2022/07/25 10:29:52;;;;;;;7.35;1.80;;;26.50;99.90;;;;;;4213034;28;20170;-90
2022/07/25 10:31:52;;;;;;;6.55;1.88;;;26.40;99.90;;;;;;4212550;28;20194;-92
2022/07/25 10:33:56;;;;;;;5.97;1.70;;;26.50;99.90;;;;;;4212241;28;20162;-91
2022/07/25 10:36:06;;;;;;;5.40;1.75;;;26.70;99.90;;;;;;4212048;28;20510;-91
2022/07/25 10:38:07;;;;;;;8.77;1.65;;;26.30;99.90;;;;;;4212082;28;20236;-90
2022/07/25 10:40:08;;;;;;;9.32;1.90;;;26.20;99.90;;;;;;4212058;28;20174;-92
2022/07/25 10:42:16;;;;;;;7.70;1.85;;;26.20;99.90;;;;;;4211938;28;20246;-90
2022/07/25 10:44:17;;;;;;;6.18;1.75;;;26.10;99.90;;;;;;4228993;28;20167;-91
2022/07/25 10:46:21;;;;;;;8.43;1.90;;;26.10;99.90;;;;;;4212249;28;20225;-91
2022/07/25 10:48:28;;;;;;;8.30;1.60;;;26.40;99.90;;;;;;4229060;28;20166;-91
2022/07/25 10:50:30;;;;;;;7.93;1.77;;;26.60;99.90;;;;;;4212298;28;20181;-91
2022/07/25 10:52:31;;;;;;;6.05;1.98;;;26.50;99.90;;;;;;4211992;28;20246;-91
2022/07/25 10:54:37;;;;;;;5.95;1.70;;;26.20;99.90;;;;;;4229000;28;20184;-91
2022/07/25 10:56:49;;;;;;;5.85;1.65;;;26.20;99.90;;;;;;4211988;28;20174;-90
2022/07/25 10:58:53;;;;;;;8.98;1.60;;;26.10;99.90;;;;;;4212206;28;20219;-90
2022/07/25 11:00:54;;;;;;;5.28;1.52;;;25.90;99.90;;;;;;4211875;28;20659;-90
2022/07/25 11:02:56;;;;;;;7.93;2.03;;;25.50;99.90;;;;;;4211701;28;20206;-91
2022/07/25 11:04:59;;;;;;;6.82;1.73;;;25.40;99.90;;;;;;4211684;28;20175;-92
2022/07/25 11:07:11;;;;;;;5.70;1.60;;;25.30;99.90;;;;;;4211768;28;20178;-91
2022/07/25 11:09:19;;;;;;;10.98;1.80;;;25.30;99.90;;;;;;4212029;28;20182;-90
2022/07/25 11:11:20;;;;;;;6.78;1.98;;;25.20;99.90;;;;;;4211618;28;20178;-90
2022/07/25 11:13:21;;;;;;;10.13;2.13;;;24.90;99.90;;;;;;4211925;28;20202;-89
2022/07/25 11:15:23;;;;;;;6.10;1.85;;;24.90;99.90;;;;;;4228852;28;20181;-91
2022/07/25 11:17:24;;;;;;;7.13;2.00;;;24.80;99.90;;;;;;4211636;28;20163;-89
2022/07/25 11:19:27;;;;;;;8.57;1.75;;;24.90;99.90;;;;;;4211316;28;20186;-91
2022/07/25 11:21:28;;;;;;;8.05;1.90;;;25.10;99.90;;;;;;4211313;28;20190;-90
2022/07/25 11:23:28;;;;;;;6.53;2.00;;;25.20;99.90;;;;;;4211322;28;20192;-90
2022/07/25 11:25:29;;;;;;;8.70;2.20;;;25.20;99.90;;;;;;4211543;28;20228;-90
2022/07/25 11:27:32;;;;;;;5.85;1.65;;;25.60;99.90;;;;;;4211374;28;20227;-91
2022/07/25 11:29:33;;;;;;;5.63;1.80;;;25.80;99.90;;;;;;4228272;28;20169;-89
2022/07/25 11:31:34;;;;;;;9.50;2.00;;;25.90;99.90;;;;;;4211468;28;20190;-89
2022/07/25 11:33:35;;;;;;;9.13;1.80;;;25.70;99.90;;;;;;4205766;28;20689;-90
2022/07/25 11:35:36;;;;;;;10.90;2.00;;;25.90;99.90;;;;;;4216961;28;20189;-91
2022/07/25 11:37:39;;;;;;;8.35;2.10;;;26.10;99.90;;;;;;4217164;28;20174;-90
2022/07/25 11:39:43;;;;;;;5.28;1.40;;;26.10;99.90;;;;;;4200120;28;20229;-90
2022/07/25 11:41:44;;;;;;;7.45;1.88;;;26.30;99.90;;;;;;4199944;28;20199;-89
2022/07/25 11:43:48;;;;;;;11.27;1.65;;;26.20;99.90;;;;;;4200162;28;20170;-90
2022/07/25 11:46:02;;;;;;;6.35;1.75;;;26.30;99.90;;;;;;4200081;28;20178;-90
2022/07/25 11:48:05;;;;;;;7.60;1.70;;;26.60;99.90;;;;;;4200025;28;20171;-92
2022/07/25 11:50:08;;;;;;;10.38;1.70;;;26.80;99.90;;;;;;4199985;28;20217;-91
2022/07/25 11:52:23;;;;;;;9.00;1.75;;;26.50;99.90;;;;;;4200008;28;20230;-91
2022/07/25 11:54:24;;;;;;;9.48;1.65;;;26.50;99.90;;;;;;4199933;28;20174;-91
2022/07/25 11:56:24;;;;;;;7.28;1.80;;;26.50;99.90;;;;;;4199856;28;20171;-91
2022/07/25 11:58:25;;;;;;;4.82;1.58;;;26.90;99.90;;;;;;4199782;28;20540;-91
2022/07/25 12:00:27;;;;;;;5.60;1.75;;;26.90;99.90;;;;;;4199859;28;20602;-89
2022/07/25 12:02:30;;;;;;;8.63;1.90;;;27.30;99.90;;;;;;4199925;28;20240;-91
2022/07/25 12:04:31;;;;;;;6.88;1.30;;;27.40;99.90;;;;;;4199735;28;20162;-90
2022/07/25 12:06:32;;;;;;;7.90;1.50;;;27.30;99.90;;;;;;4199707;28;20547;-90
2022/07/25 12:08:37;;;;;;;6.63;1.45;;;27.30;99.90;;;;;;4199591;28;20163;-91
2022/07/25 12:10:39;;;;;;;5.80;1.40;;;27.20;99.90;;;;;;4216582;28;20207;-91
2022/07/25 12:12:51;;;;;;;5.75;1.48;;;27.10;99.90;;;;;;4199542;28;20289;-90
2022/07/25 12:14:52;;;;;;;8.13;1.60;;;27.10;99.90;;;;;;4199827;28;20239;-92
2022/07/25 12:16:52;;;;;;;8.80;1.60;;;27.00;99.90;;;;;;4216422;28;20596;-89
2022/07/25 12:18:53;;;;;;;7.18;1.40;;;27.00;99.90;;;;;;4199392;28;20175;-91
2022/07/25 12:20:54;;;;;;;5.45;1.27;;;27.20;99.90;;;;;;4216079;28;20185;-90
2022/07/25 12:22:57;;;;;;;6.47;1.30;;;27.30;99.90;;;;;;4199305;28;20276;-92
2022/07/25 12:24:58;;;;;;;9.50;1.52;;;27.40;99.90;;;;;;4199471;28;20179;-91
2022/07/25 12:26:58;;;;;;;4.30;1.20;;;27.30;99.90;;;;;;4216012;28;20166;-90
2022/07/25 12:29:00;;;;;;;10.27;1.83;;;27.30;99.90;;;;;;4199291;28;20171;-90
2022/07/25 12:31:00;;;;;;;13.68;1.50;;;27.20;99.90;;;;;;4199335;28;20222;-91
2022/07/25 12:33:01;;;;;;;4.93;1.75;;;27.60;99.90;;;;;;4199312;28;20167;-90
2022/07/25 12:35:03;;;;;;;9.02;1.70;;;27.90;99.90;;;;;;4199234;28;20269;-93
2022/07/25 12:37:04;;;;;;;6.13;1.45;;;28.00;99.90;;;;;;4199289;28;20185;-91
2022/07/25 12:39:05;;;;;;;5.45;1.33;;;28.10;99.90;;;;;;4199169;28;20261;-91
2022/07/25 12:41:05;;;;;;;22.42;1.77;;;27.50;99.90;;;;;;4199094;28;20183;-88
2022/07/25 12:43:06;;;;;;;7.05;1.33;;;27.20;99.90;;;;;;4199155;28;20279;-90
2022/07/25 12:45:08;;;;;;;6.95;1.58;;;27.30;99.90;;;;;;4198144;28;20175;-92
2022/07/25 12:47:09;;;;;;;6.97;1.50;;;27.60;99.90;;;;;;4199286;28;20185;-87
2022/07/25 12:49:10;;;;;;;6.90;1.85;;;27.70;99.90;;;;;;4199278;28;20265;-91
2022/07/25 12:51:11;;;;;;;7.30;1.70;;;27.50;99.90;;;;;;4199239;28;20332;-92
2022/07/25 12:53:12;;;;;;;7.13;1.90;;;27.50;99.90;;;;;;4199119;28;20171;-90
2022/07/25 12:55:15;;;;;;;14.63;2.03;;;27.50;99.90;;;;;;4199018;28;20225;-90
2022/07/25 12:57:16;;;;;;;7.57;1.90;;;27.50;99.90;;;;;;4215760;28;20170;-90
2022/07/25 12:59:17;;;;;;;5.00;1.50;;;27.70;99.90;;;;;;4198842;28;20254;-90
2022/07/25 13:01:18;;;;;;;16.42;2.63;;;27.50;99.90;;;;;;4214425;22;20159;-90
2022/07/25 13:03:19;;;;;;;9.50;1.80;;;27.80;99.90;;;;;;4215502;28;20186;-92
2022/07/25 13:05:20;;;;;;;11.50;1.75;;;27.80;99.90;;;;;;4198655;28;20167;-92
2022/07/25 13:07:21;;;;;;;8.80;1.55;;;27.60;99.90;;;;;;4198534;28;20182;-90
2022/07/25 13:09:22;;;;;;;7.68;1.10;;;27.60;99.90;;;;;;4215341;28;20170;-89
2022/07/25 13:11:23;;;;;;;7.68;1.33;;;27.70;99.90;;;;;;4216044;28;20228;-94
2022/07/25 13:13:24;;;;;;;6.25;1.25;;;27.70;99.90;;;;;;4199144;28;20174;-92
2022/07/25 13:15:27;;;;;;;7.03;1.00;;;27.50;99.90;;;;;;4216674;28;20177;-90
2022/07/25 13:17:27;;;;;;;5.60;0.93;;;27.30;99.90;;;;;;4198906;28;20256;-92
2022/07/25 13:19:28;;;;;;;6.25;1.00;;;27.30;99.90;;;;;;4199502;28;20649;-92
2022/07/25 13:21:29;;;;;;;4.47;1.00;;;27.20;99.90;;;;;;4217735;28;20226;-93
2022/07/25 13:23:30;;;;;;;6.82;1.08;;;27.20;99.90;;;;;;4199209;28;20174;-88
2022/07/25 13:25:32;;;;;;;4.85;1.25;;;27.40;99.90;;;;;;4200317;28;20163;-92
2022/07/25 13:27:33;;;;;;;8.63;1.02;;;27.50;99.90;;;;;;4199045;28;20686;-90
2022/07/25 13:29:34;;;;;;;8.32;1.20;;;27.80;99.90;;;;;;4198797;28;20179;-92
2022/07/25 13:31:35;;;;;;;7.07;1.35;;;27.90;99.90;;;;;;4198999;28;20202;-94
2022/07/25 13:33:35;;;;;;;8.27;1.40;;;27.90;99.90;;;;;;4217223;28;20307;-92
2022/07/25 13:35:37;;;;;;;7.20;1.88;;;27.70;99.90;;;;;;4216731;28;20174;-91
2022/07/25 13:37:37;;;;;;;3.80;1.10;;;28.10;99.90;;;;;;4200320;28;20169;-94
2022/07/25 13:39:40;;;;;;;8.02;1.25;;;28.00;99.90;;;;;;4220080;28;20177;-96
2022/07/25 13:41:41;;;;;;;6.95;1.20;;;28.20;99.90;;;;;;4200053;28;20198;-92
2022/07/25 13:43:42;;;;;;;7.78;1.00;;;28.30;99.90;;;;;;4199678;28;20185;-92
2022/07/25 13:45:43;;;;;;;6.75;1.10;;;28.30;99.90;;;;;;4216439;28;20196;-92
2022/07/25 13:47:44;;;;;;;6.40;0.90;;;28.60;99.90;;;;;;4199050;28;20175;-92
2022/07/25 13:49:44;;;;;;;11.70;1.27;;;28.50;99.90;;;;;;4199505;28;20171;-90
2022/07/25 13:51:46;;;;;;;14.20;1.00;;;28.10;99.90;;;;;;4198664;28;20625;-92
2022/07/25 13:53:47;;;;;;;9.18;1.10;;;27.50;99.90;;;;;;4200224;28;20700;-92
2022/07/25 13:55:48;;;;;;;4.53;1.00;;;27.50;99.90;;;;;;4199604;28;20171;-92
2022/07/25 13:57:49;;;;;;;7.20;1.10;;;27.50;99.90;;;;;;4216192;28;20174;-92
2022/07/25 13:59:49;;;;;;;5.15;0.90;;;27.50;99.90;;;;;;4199672;28;20167;-92
2022/07/25 14:01:50;;;;;;;7.60;1.20;;;27.30;99.90;;;;;;4199406;28;20210;-94
2022/07/25 14:03:51;;;;;;;12.70;1.20;;;27.00;99.90;;;;;;4199231;28;20166;-95
2022/07/25 14:05:52;;;;;;;6.70;1.02;;;26.50;99.90;;;;;;4198577;28;20183;-96
2022/07/25 14:07:52;;;;;;;4.93;0.98;;;26.60;99.90;;;;;;4215807;28;20212;-93
2022/07/25 14:09:53;;;;;;;5.28;1.00;;;26.80;99.90;;;;;;4198170;28;20171;-92
2022/07/25 14:11:54;;;;;;;10.80;1.17;;;26.90;99.90;;;;;;4215768;28;20198;-94
2022/07/25 14:13:55;;;;;;;3.03;0.82;;;26.90;99.90;;;;;;4198816;28;20246;-92
2022/07/25 14:15:56;;;;;;;12.75;1.20;;;27.00;99.90;;;;;;4201047;28;20175;-93
2022/07/25 14:17:57;;;;;;;10.80;1.50;;;27.00;99.90;;;;;;4198296;28;20201;-91
2022/07/25 14:19:58;;;;;;;4.85;1.00;;;27.20;99.90;;;;;;4198291;28;20179;-94
2022/07/25 14:21:59;;;;;;;6.90;0.90;;;27.00;99.90;;;;;;4198931;28;20201;-96
2022/07/25 14:24:00;;;;;;;5.50;0.90;;;27.10;99.90;;;;;;4198832;28;20182;-92
2022/07/25 14:26:00;;;;;;;6.15;0.95;;;27.20;99.90;;;;;;4198748;28;20619;-91
2022/07/25 14:28:01;;;;;;;3.22;0.93;;;27.40;99.90;;;;;;4199650;28;20179;-91
2022/07/25 14:30:07;;;;;;;7.95;1.00;;;27.40;99.90;;;;;;4198298;28;20174;-94
2022/07/25 14:32:08;;;;;;;11.95;0.85;;;27.10;99.90;;;;;;4198696;28;20197;-92
2022/07/25 14:34:09;;;;;;;9.52;0.80;;;26.80;99.90;;;;;;4215496;28;20174;-89
2022/07/25 14:36:10;;;;;;;7.03;0.73;;;26.90;99.90;;;;;;4198359;28;20188;-92
2022/07/25 14:38:11;;;;;;;8.27;0.80;;;27.00;99.90;;;;;;4215709;28;20170;-96
2022/07/25 14:40:13;;;;;;;7.88;0.90;;;26.80;99.90;;;;;;4198230;28;20171;-90
2022/07/25 14:42:17;;;;;;;5.03;0.57;;;27.10;99.90;;;;;;4199706;28;20214;-91
2022/07/25 14:44:18;;;;;;;3.65;0.85;;;27.00;99.90;;;;;;4215270;28;20180;-95
2022/07/25 14:46:19;;;;;;;3.33;0.70;;;27.00;99.90;;;;;;4198978;28;20203;-91
2022/07/25 14:48:20;;;;;;;3.30;0.60;;;27.00;99.90;;;;;;4198227;28;20198;-94
2022/07/25 14:50:22;;;;;;;11.10;1.30;;;26.90;99.90;;;;;;4214889;28;20173;-93
2022/07/25 14:52:23;;;;;;;4.50;1.73;;;26.90;99.90;;;;;;4198030;28;20186;-93
2022/07/25 14:54:27;;;;;;;5.53;2.40;;;26.90;99.90;;;;;;4198011;28;20171;-91
2022/07/25 14:56:27;;;;;;;7.30;1.20;;;26.70;99.90;;;;;;4198702;28;20171;-91
2022/07/25 14:58:28;;;;;;;3.95;0.50;;;26.90;99.90;;;;;;4214525;28;20209;-92
2022/07/25 15:00:29;;;;;;;2.65;0.50;;;27.00;99.90;;;;;;4199403;28;20183;-93
2022/07/25 15:02:30;;;;;;;3.30;0.55;;;27.20;99.90;;;;;;4199143;28;20638;-93
2022/07/25 15:04:30;;;;;;;3.88;0.65;;;27.40;99.90;;;;;;4216928;28;20207;-93
2022/07/25 15:06:31;;;;;;;11.73;0.60;;;27.80;99.90;;;;;;4198199;28;20175;-92
2022/07/25 15:08:32;;;;;;;1.65;0.38;;;27.80;99.90;;;;;;4198702;28;20532;-94
2022/07/25 15:10:33;;;;;;;5.32;0.70;;;27.70;99.90;;;;;;4201991;28;20185;-90
2022/07/25 15:12:34;;;;;;;5.93;0.50;;;27.80;99.90;;;;;;4201001;28;20198;-92
2022/07/25 15:14:34;;;;;;;3.85;0.60;;;27.60;99.90;;;;;;4200906;28;20558;-91
2022/07/25 15:16:37;;;;;;;2.20;0.52;;;27.50;99.90;;;;;;4201350;28;20650;-94
2022/07/25 15:18:38;;;;;;;4.45;0.60;;;27.10;99.90;;;;;;4217924;28;20204;-93
2022/07/25 15:20:39;;;;;;;3.97;0.47;;;26.90;99.90;;;;;;4201001;28;20171;-92
2022/07/25 15:22:40;;;;;;;1.80;0.55;;;26.80;99.90;;;;;;4201083;28;20210;-91
2022/07/25 15:24:41;;;;;;;7.00;0.80;;;26.80;99.90;;;;;;4201203;28;20220;-93
2022/07/25 15:26:41;;;;;;;8.00;0.73;;;26.90;99.90;;;;;;4200528;28;20183;-93
2022/07/25 15:28:43;;;;;;;4.90;0.50;;;26.60;99.90;;;;;;4201593;28;20189;-92
2022/07/25 15:30:43;;;;;;;4.10;0.60;;;26.70;99.90;;;;;;4202669;28;20178;-91
2022/07/25 15:32:44;;;;;;;4.35;0.70;;;26.80;99.90;;;;;;4200778;28;20293;-92
2022/07/25 15:34:45;;;;;;;5.28;0.70;;;26.60;99.90;;;;;;4202385;28;20201;-91
2022/07/25 15:36:46;;;;;;;16.25;0.90;;;26.60;99.90;;;;;;4200409;28;20167;-91
2022/07/25 15:38:48;;;;;;;8.88;0.80;;;26.50;99.90;;;;;;4200498;28;20205;-93
2022/07/25 15:40:49;;;;;;;8.45;0.75;;;26.70;99.90;;;;;;4203170;28;20175;-90
2022/07/25 15:42:51;;;;;;;8.18;0.90;;;26.80;99.90;;;;;;4201530;28;20754;-91
2022/07/25 15:44:51;;;;;;;6.63;0.80;;;26.70;99.90;;;;;;4206167;28;20227;-94
2022/07/25 15:46:52;;;;;;;16.05;1.17;;;26.60;99.90;;;;;;4201564;28;20516;-95
2022/07/25 15:48:53;;;;;;;5.38;0.47;;;26.70;99.90;;;;;;4200614;28;20172;-94
2022/07/25 15:50:56;;;;;;;4.45;0.80;;;26.50;99.90;;;;;;4217098;28;20174;-95
2022/07/25 15:52:57;;;;;;;5.05;0.60;;;26.20;99.90;;;;;;4200841;28;20289;-90
2022/07/25 15:54:58;;;;;;;7.03;0.75;;;26.20;99.90;;;;;;4200359;28;20193;-91
2022/07/25 15:56:59;;;;;;;7.95;0.73;;;26.00;99.90;;;;;;4217623;28;20174;-91
2022/07/25 15:59:00;;;;;;;4.45;0.77;;;25.90;99.90;;;;;;4201053;28;20174;-91
2022/07/25 16:01:00;;;;;;;2.10;0.60;;;26.20;99.90;;;;;;4200408;28;20202;-95
2022/07/25 16:03:02;;;;;;;3.63;0.70;;;26.50;99.90;;;;;;4217775;28;20214;-93
2022/07/25 16:05:03;;;;;;;4.75;0.65;;;26.50;99.90;;;;;;4200890;28;20175;-93
2022/07/25 16:07:04;;;;;;;2.22;0.70;;;26.20;99.90;;;;;;4216875;28;20171;-91
2022/07/25 16:09:05;;;;;;;1.90;0.70;;;26.10;99.90;;;;;;4200221;28;20650;-92
2022/07/25 16:11:05;;;;;;;3.78;0.77;;;26.10;99.90;;;;;;4216587;28;20273;-90
2022/07/25 16:13:06;;;;;;;2.70;0.70;;;25.80;99.90;;;;;;4200531;28;20715;-92
2022/07/25 16:15:07;;;;;;;6.65;0.75;;;25.80;99.90;;;;;;4200613;28;20225;-92
2022/07/25 16:17:08;;;;;;;11.15;0.77;;;25.60;99.90;;;;;;4199743;28;20265;-92
2022/07/25 16:19:09;;;;;;;8.32;0.85;;;25.70;99.90;;;;;;4199827;28;20167;-92
2022/07/25 16:21:10;;;;;;;6.07;0.57;;;25.60;99.90;;;;;;4216879;28;20174;-91
2022/07/25 16:23:10;;;;;;;6.05;0.60;;;25.60;99.90;;;;;;4199818;28;20202;-92
2022/07/25 16:25:11;;;;;;;4.72;0.60;;;25.60;99.90;;;;;;4216836;28;20190;-92
2022/07/25 16:27:12;;;;;;;4.30;0.68;;;25.70;99.90;;;;;;4200411;28;20195;-91
2022/07/25 16:29:13;;;;;;;3.35;0.50;;;25.70;99.90;;;;;;4200332;28;20245;-92
2022/07/25 16:31:13;;;;;;;2.17;0.50;;;25.80;99.90;;;;;;4199878;28;20207;-91
2022/07/25 16:33:14;;;;;;;4.82;0.40;;;25.80;99.90;;;;;;4199790;28;20210;-91
2022/07/25 16:35:15;;;;;;;6.53;0.63;;;25.40;99.90;;;;;;4199861;28;20600;-90
2022/07/25 16:37:16;;;;;;;2.88;0.60;;;25.30;99.90;;;;;;4199560;28;20543;-92
2022/07/25 16:39:17;;;;;;;5.88;0.50;;;25.40;99.90;;;;;;4199722;28;20187;-89
2022/07/25 16:41:18;;;;;;;3.83;0.50;;;25.20;99.90;;;;;;4199463;28;20190;-91
2022/07/25 16:43:19;;;;;;;3.45;0.50;;;25.20;99.90;;;;;;4199307;28;20215;-93
2022/07/25 16:45:20;;;;;;;2.35;0.50;;;25.00;99.90;;;;;;4200162;28;20178;-91
2022/07/25 16:47:21;;;;;;;2.65;0.45;;;25.10;99.90;;;;;;4201037;28;20167;-95
2022/07/25 16:49:22;;;;;;;7.40;0.50;;;25.10;99.90;;;;;;4199495;28;20171;-95
2022/07/25 16:51:23;;;;;;;9.65;0.93;;;24.90;99.90;;;;;;4199500;28;20198;-91
2022/07/25 16:53:24;;;;;;;2.05;0.45;;;24.70;99.90;;;;;;4215990;28;20204;-91
2022/07/25 16:55:25;;;;;;;2.58;0.80;;;24.60;99.90;;;;;;4199151;28;20297;-91
2022/07/25 16:57:26;;;;;;;3.53;0.60;;;24.50;99.90;;;;;;4200226;28;20191;-92
2022/07/25 16:59:26;;;;;;;4.90;0.70;;;24.50;99.90;;;;;;4199644;28;20201;-91
2022/07/25 17:01:27;;;;;;;5.18;0.40;;;24.60;99.90;;;;;;4200815;28;20240;-90
2022/07/25 17:03:28;;;;;;;4.18;0.63;;;24.80;99.90;;;;;;4215919;28;20177;-90
2022/07/25 17:05:30;;;;;;;3.15;0.50;;;24.70;99.90;;;;;;4198886;28;20175;-90
2022/07/25 17:07:31;;;;;;;3.35;0.60;;;24.60;99.90;;;;;;4216842;28;20170;-91
2022/07/25 17:09:32;;;;;;;4.93;0.80;;;24.60;99.90;;;;;;4215525;28;20249;-91
2022/07/25 17:11:35;;;;;;;7.05;0.70;;;24.50;99.90;;;;;;4198636;28;20729;-91
2022/07/25 17:13:36;;;;;;;3.55;0.70;;;24.20;99.90;;;;;;4215657;28;20170;-90
2022/07/25 17:15:36;;;;;;;4.68;0.80;;;24.20;99.90;;;;;;4199731;28;20170;-92
2022/07/25 17:17:38;;;;;;;8.10;0.82;;;24.40;99.90;;;;;;4198960;28;20265;-91
2022/07/25 17:19:39;;;;;;;6.93;0.90;;;24.30;99.90;;;;;;4198881;28;20174;-90
2022/07/25 17:21:40;;;;;;;4.75;0.85;;;24.40;99.90;;;;;;4198313;28;20190;-91
2022/07/25 17:23:40;;;;;;;4.05;0.90;;;24.50;99.90;;;;;;4215180;28;20205;-92
2022/07/25 17:25:41;;;;;;;6.35;0.90;;;24.50;99.90;;;;;;4199131;28;20171;-91
2022/07/25 17:27:42;;;;;;;10.10;1.17;;;24.40;99.90;;;;;;4215787;28;20196;-95
2022/07/25 17:29:43;;;;;;;6.70;0.93;;;24.50;99.90;;;;;;4198546;28;20170;-91
2022/07/25 17:31:44;;;;;;;7.45;1.05;;;24.40;99.90;;;;;;4214660;28;20278;-91
2022/07/25 17:33:44;;;;;;;7.75;0.65;;;24.40;99.90;;;;;;4198621;28;20167;-90
2022/07/25 17:35:45;;;;;;;5.85;0.77;;;24.50;99.90;;;;;;4198263;28;20210;-90
2022/07/25 17:37:46;;;;;;;8.00;0.68;;;24.50;99.90;;;;;;4215369;28;20170;-92
2022/07/25 17:39:46;;;;;;;7.65;0.60;;;24.60;99.90;;;;;;4198412;28;20171;-96
2022/07/25 17:41:47;;;;;;;4.35;0.73;;;24.60;99.90;;;;;;4214689;28;20243;-91
2022/07/25 17:43:48;;;;;;;4.43;0.60;;;24.70;99.90;;;;;;4198182;28;20546;-94
2022/07/25 17:45:49;;;;;;;5.07;0.70;;;24.60;99.90;;;;;;4198301;28;20167;-90
2022/07/25 17:47:51;;;;;;;4.85;0.70;;;24.40;99.90;;;;;;4198474;28;20228;-92
2022/07/25 17:49:52;;;;;;;3.67;0.63;;;24.30;99.90;;;;;;4198384;28;20167;-94
2022/07/25 17:51:52;;;;;;;4.90;0.70;;;24.20;99.90;;;;;;4198147;28;20202;-95
2022/07/25 17:53:53;;;;;;;5.55;0.68;;;24.30;99.90;;;;;;4198314;28;20175;-94
2022/07/25 17:55:54;;;;;;;5.30;0.80;;;24.20;99.90;;;;;;4198305;28;20185;-92
2022/07/25 17:57:55;;;;;;;3.80;0.52;;;24.20;99.90;;;;;;4198275;28;20643;-91
2022/07/25 17:59:55;;;;;;;7.40;0.60;;;24.30;99.90;;;;;;4198078;28;20233;-93
2022/07/25 18:01:56;;;;;;;5.68;0.60;;;24.20;99.90;;;;;;4214727;28;20202;-91
2022/07/25 18:03:57;;;;;;;2.50;0.50;;;24.20;99.90;;;;;;4197980;28;20175;-91
2022/07/25 18:05:57;;;;;;;3.88;0.75;;;24.20;99.90;;;;;;4198122;28;20171;-90
2022/07/25 18:07:58;;;;;;;5.55;0.70;;;24.20;99.90;;;;;;4197855;28;20171;-90
2022/07/25 18:10:00;;;;;;;2.70;0.88;;;24.00;99.90;;;;;;4198229;28;20688;-90
2022/07/25 18:12:01;;;;;;;3.55;1.05;;;23.80;99.90;;;;;;4197962;28;20247;-90
2022/07/25 18:14:02;;;;;;;2.08;0.40;;;23.70;99.90;;;;;;4214725;28;20981;-91
2022/07/25 18:16:03;;;;;;;2.90;0.60;;;23.80;99.90;;;;;;4215249;28;20301;-90
2022/07/25 18:18:06;;;;;;;1.33;0.50;;;23.80;99.90;;;;;;4198190;28;20210;-90
2022/07/25 18:20:07;;;;;;;3.45;0.82;;;23.90;99.90;;;;;;4214805;28;20170;-91
2022/07/25 18:22:08;;;;;;;3.00;0.50;;;23.80;99.90;;;;;;4215033;28;20644;-94
2022/07/25 18:24:08;;;;;;;3.60;0.60;;;23.80;99.90;;;;;;4198239;28;20174;-96
2022/07/25 18:26:09;;;;;;;5.57;0.90;;;23.80;99.90;;;;;;4197907;28;20171;-95
2022/07/25 18:28:11;;;;;;;4.00;0.57;;;23.80;99.90;;;;;;4197809;28;20241;-91
2022/07/25 18:30:13;;;;;;;7.10;0.80;;;23.80;99.90;;;;;;4197922;28;20179;-90
2022/07/25 18:32:14;;;;;;;9.60;0.90;;;23.70;99.90;;;;;;4197749;28;20285;-93
2022/07/25 18:34:15;;;;;;;7.43;0.90;;;23.90;99.90;;;;;;4214433;28;20646;-89
2022/07/25 18:36:16;;;;;;;4.10;0.85;;;23.80;99.90;;;;;;4197883;28;20175;-91
2022/07/25 18:38:16;;;;;;;2.80;0.60;;;23.60;99.90;;;;;;4197919;28;20213;-89
2022/07/25 18:40:18;;;;;;;3.97;0.85;;;23.50;99.90;;;;;;4215173;28;20170;-89
2022/07/25 18:42:19;;;;;;;5.55;0.75;;;23.60;99.90;;;;;;4197634;28;20199;-90
2022/07/25 18:44:19;;;;;;;4.85;0.80;;;23.60;99.90;;;;;;4216635;28;20177;-90
2022/07/25 18:46:20;;;;;;;4.90;0.50;;;23.60;99.90;;;;;;4201400;28;20261;-91
2022/07/25 18:48:21;;;;;;;5.57;0.70;;;23.50;99.90;;;;;;4217827;28;20163;-90
2022/07/25 18:50:22;;;;;;;1.85;0.50;;;23.60;99.90;;;;;;4200794;28;20171;-94
2022/07/25 18:52:23;;;;;;;5.68;0.50;;;23.50;99.90;;;;;;4200911;28;20194;-91
2022/07/25 18:54:23;;;;;;;4.68;0.70;;;23.50;99.90;;;;;;4201139;28;20671;-91
2022/07/25 18:56:24;;;;;;;6.95;0.85;;;23.40;99.90;;;;;;4200680;28;20265;-90
2022/07/25 18:58:25;;;;;;;7.95;1.48;;;23.30;99.90;;;;;;4217572;28;20177;-92
2022/07/25 19:00:26;;;;;;;3.72;1.23;;;23.00;99.90;;;;;;4217389;28;20231;-91
2022/07/25 19:02:26;;;;;;;7.82;1.00;;;22.90;99.90;;;;;;4201232;28;20639;-91
2022/07/25 19:06:53;;;;;;;5.65;1.08;;;22.60;99.90;;;;;;4204998;28;20208;-95
2022/07/25 19:08:54;;;;;;;6.30;0.95;;;22.50;99.90;;;;;;4200667;28;20167;-90
2022/07/25 19:10:55;;;;;;;5.55;0.90;;;22.50;99.90;;;;;;4200661;28;20159;-91
2022/07/25 19:12:56;;;;;;;4.68;0.80;;;22.50;99.90;;;;;;4200481;28;20202;-96
2022/07/25 19:14:57;;;;;;;6.07;1.00;;;22.40;99.90;;;;;;4200585;28;20171;-91
2022/07/25 19:16:58;;;;;;;6.50;0.80;;;22.30;99.90;;;;;;4200684;28;20621;-92
2022/07/25 19:18:59;;;;;;;4.75;0.98;;;22.30;99.90;;;;;;4217335;28;20181;-91
2022/07/25 19:21:00;;;;;;;3.30;0.50;;;22.30;99.90;;;;;;4200409;28;20253;-96
2022/07/25 19:23:01;;;;;;;5.05;0.50;;;22.40;99.90;;;;;;4217348;28;20220;-91
2022/07/25 19:25:06;;;;;;;3.85;0.80;;;22.40;99.90;;;;;;4217187;28;20296;-91
2022/07/25 19:27:08;;;;;;;10.10;0.90;;;22.50;99.90;;;;;;4200337;28;20179;-91
2022/07/25 19:29:09;;;;;;;3.28;0.60;;;22.50;99.90;;;;;;4200391;28;20171;-90
2022/07/25 19:31:10;;;;;;;5.30;0.70;;;22.40;99.90;;;;;;4217023;28;20554;-91
2022/07/25 19:33:10;;;;;;;4.22;0.77;;;22.40;99.90;;;;;;4200296;28;20270;-91
2022/07/25 19:35:11;;;;;;;6.15;0.88;;;22.40;99.90;;;;;;4216943;28;20185;-91
2022/07/25 19:37:12;;;;;;;5.13;0.75;;;22.50;99.90;;;;;;4200224;28;20170;-91
2022/07/25 19:39:14;;;;;;;4.93;1.02;;;22.60;99.90;;;;;;4216986;28;20174;-90
2022/07/25 19:41:14;;;;;;;4.35;0.85;;;22.60;99.90;;;;;;4217207;28;20171;-91
2022/07/25 19:43:15;;;;;;;7.07;0.90;;;22.50;99.90;;;;;;4200258;28;20268;-91
2022/07/25 19:45:16;;;;;;;3.13;0.65;;;22.50;99.90;;;;;;4216803;28;20178;-92
2022/07/25 19:47:17;;;;;;;3.67;1.02;;;22.40;99.90;;;;;;4200094;28;20736;-90
2022/07/25 19:49:17;;;;;;;5.32;1.00;;;22.40;99.90;;;;;;4200285;28;20651;-94
2022/07/25 19:51:18;;;;;;;3.13;0.95;;;22.50;99.90;;;;;;4200239;28;20191;-91
2022/07/25 19:53:19;;;;;;;6.53;0.93;;;22.40;99.90;;;;;;4200059;28;20582;-92
2022/07/25 19:55:19;;;;;;;3.40;1.05;;;22.30;99.90;;;;;;4199624;28;20175;-92
2022/07/25 19:57:20;;;;;;;4.82;0.80;;;22.30;99.90;;;;;;4216823;28;20216;-90
2022/07/25 19:59:21;;;;;;;5.22;0.70;;;22.40;99.90;;;;;;4200120;28;20705;-91
2022/07/25 20:01:22;;;;;;;6.65;1.02;;;22.50;99.90;;;;;;4199941;28;20666;-94
2022/07/25 20:03:22;;;;;;;5.93;0.82;;;22.40;99.90;;;;;;4200077;28;20210;-96
2022/07/25 20:05:23;;;;;;;4.28;0.82;;;22.40;99.90;;;;;;4200168;28;20301;-93
2022/07/25 20:07:24;;;;;;;8.18;0.75;;;22.30;99.90;;;;;;4200007;28;20174;-92
2022/07/25 20:09:25;;;;;;;5.90;1.05;;;22.20;99.90;;;;;;4200386;28;20178;-92
2022/07/25 20:11:25;;;;;;;5.70;0.98;;;22.20;99.90;;;;;;4217576;28;20284;-91
2022/07/25 20:13:28;;;;;;;5.90;0.80;;;22.20;99.90;;;;;;4200190;28;20273;-91
2022/07/25 20:15:28;;;;;;;5.60;1.00;;;22.20;99.90;;;;;;4199848;28;20520;-91
2022/07/25 20:17:29;;;;;;;2.85;0.80;;;22.20;99.90;;;;;;4200165;28;20181;-91
2022/07/25 20:19:30;;;;;;;6.57;0.85;;;22.20;99.90;;;;;;4216790;28;20634;-91
2022/07/25 20:21:32;;;;;;;4.88;0.77;;;22.20;99.90;;;;;;4199682;28;20198;-92
2022/07/25 20:23:32;;;;;;;5.53;0.82;;;22.20;99.90;;;;;;4199794;28;20179;-91
2022/07/25 20:25:34;;;;;;;6.07;1.23;;;22.10;99.90;;;;;;4199617;28;20174;-90
2022/07/25 20:27:35;;;;;;;9.52;0.98;;;22.10;99.90;;;;;;4216457;28;20182;-90
2022/07/25 20:29:36;;;;;;;15.55;1.15;;;22.10;99.90;;;;;;4216401;28;20641;-90
2022/07/25 20:31:37;;;;;;;4.57;0.88;;;22.00;99.90;;;;;;4199755;28;20303;-91
2022/07/25 20:33:37;;;;;;;6.97;0.88;;;21.90;99.90;;;;;;4199552;28;20221;-92
2022/07/25 20:35:38;;;;;;;7.30;1.08;;;21.90;99.90;;;;;;4199608;28;20210;-92
2022/07/25 20:37:39;;;;;;;5.28;0.90;;;21.80;99.90;;;;;;4216503;28;20195;-91
2022/07/25 20:39:40;;;;;;;7.57;1.20;;;21.80;99.90;;;;;;4199546;28;20658;-92
2022/07/25 20:41:40;;;;;;;5.45;0.90;;;21.70;99.90;;;;;;4199005;28;20633;-91
2022/07/25 20:43:42;;;;;;;5.68;1.10;;;21.70;99.90;;;;;;4215899;28;20193;-91
2022/07/25 20:45:43;;;;;;;8.57;1.20;;;21.70;99.90;;;;;;4199175;28;20163;-93
2022/07/25 20:47:43;;;;;;;6.57;1.10;;;21.60;99.90;;;;;;4216068;28;20186;-92
2022/07/25 20:49:44;;;;;;;7.40;0.88;;;21.60;99.90;;;;;;4199344;28;20567;-92
2022/07/25 20:51:45;;;;;;;5.25;1.00;;;21.50;99.90;;;;;;4215835;28;20193;-95
2022/07/25 20:53:46;;;;;;;6.18;0.95;;;21.60;99.90;;;;;;4199256;28;20185;-95
2022/07/25 20:55:46;;;;;;;7.97;1.20;;;21.60;99.90;;;;;;4199010;28;20599;-95